createdAt,value
2019-06-07T00:01:24.130Z,4.37
2019-06-07T00:03:54.216Z,4.97
2019-06-07T00:06:25.809Z,4.77
2019-06-07T00:08:56.091Z,4.07
2019-06-07T00:11:26.222Z,4.20
2019-06-07T00:13:56.288Z,4.53
2019-06-07T00:16:26.199Z,4.83
2019-06-07T00:18:56.161Z,4.17
2019-06-07T00:22:13.020Z,4.30
2019-06-07T00:23:57.937Z,4.37
2019-06-07T00:26:27.870Z,4.80
2019-06-07T00:28:57.947Z,4.80
2019-06-07T00:31:27.891Z,4.60
2019-06-07T00:33:57.983Z,4.73
2019-06-07T00:36:27.993Z,4.80
2019-06-07T00:38:57.921Z,4.83
2019-06-07T00:41:28.111Z,4.57
2019-06-07T00:43:58.037Z,4.67
2019-06-07T00:46:28.086Z,5.30
2019-06-07T00:48:58.028Z,5.00
2019-06-07T00:51:47.545Z,4.47
2019-06-07T00:53:59.911Z,5.37
2019-06-07T00:56:29.919Z,5.20
2019-06-07T00:59:11.105Z,5.80
2019-06-07T01:01:31.979Z,5.63
2019-06-07T01:04:01.926Z,5.30
2019-06-07T01:06:32.036Z,5.13
2019-06-07T01:09:02.034Z,4.90
2019-06-07T01:11:32.050Z,6.37
2019-06-07T01:14:02.179Z,5.20
2019-06-07T01:16:55.834Z,5.53
2019-06-07T01:19:03.909Z,5.83
2019-06-07T01:21:33.935Z,5.55
2019-06-07T01:24:12.157Z,6.00
2019-06-07T01:26:35.917Z,5.60
2019-06-07T01:29:06.013Z,6.03
2019-06-07T01:31:36.066Z,6.30
2019-06-07T01:34:06.061Z,5.60
2019-06-07T01:36:36.099Z,5.00
2019-06-07T01:39:07.632Z,5.40
2019-06-07T01:41:37.579Z,6.10
2019-06-07T01:44:07.631Z,5.47
2019-06-07T01:46:37.666Z,6.27
2019-06-07T01:49:07.731Z,6.97
2019-06-07T01:51:37.688Z,5.30
2019-06-07T01:56:39.523Z,7.12
2019-06-07T01:59:09.648Z,7.30
2019-06-07T02:01:39.742Z,5.87
2019-06-07T02:04:09.885Z,6.47
2019-06-07T02:06:40.023Z,6.10
2019-06-07T02:09:10.095Z,6.13
2019-06-07T02:11:40.079Z,6.00
2019-06-07T02:14:10.080Z,6.20
2019-06-07T02:16:40.228Z,6.57
2019-06-07T02:19:10.318Z,5.93
2019-06-07T02:21:40.433Z,6.50
2019-06-07T02:24:10.267Z,6.70
2019-06-07T02:26:40.206Z,6.53
2019-06-07T02:29:10.156Z,7.60
2019-06-07T02:31:40.176Z,6.08
2019-06-07T02:34:10.277Z,6.22
2019-06-07T02:36:41.807Z,6.37
2019-06-07T02:39:11.987Z,7.27
2019-06-07T02:41:42.236Z,6.27
2019-06-07T02:44:12.233Z,6.08
2019-06-07T02:46:48.911Z,7.10
2019-06-07T02:49:14.138Z,7.63
2019-06-07T02:51:44.198Z,7.43
2019-06-07T02:54:14.396Z,7.23
2019-06-07T02:56:57.445Z,5.97
2019-06-07T02:59:17.874Z,5.83
2019-06-07T03:01:48.653Z,7.43
2019-06-07T03:04:19.341Z,6.73
2019-06-07T03:06:52.506Z,6.83
2019-06-07T03:09:23.420Z,7.00
2019-06-07T03:11:56.117Z,7.33
2019-06-07T03:14:28.602Z,7.50
2019-06-07T03:17:10.633Z,7.07
2019-06-07T03:19:44.838Z,6.97
2019-06-07T03:22:14.843Z,6.90
2019-06-07T03:24:46.587Z,7.20
2019-06-07T03:27:41.481Z,7.10
2019-06-07T03:29:49.296Z,6.50
2019-06-07T03:32:19.294Z,7.80
2019-06-07T03:34:49.345Z,9.70
2019-06-07T03:37:19.500Z,7.53
2019-06-07T03:39:49.619Z,8.17
2019-06-07T03:42:19.697Z,6.43
2019-06-07T03:44:49.645Z,7.97
2019-06-07T03:47:19.600Z,9.80
2019-06-07T03:49:49.602Z,9.13
2019-06-07T03:52:19.543Z,8.93
2019-06-07T03:54:49.509Z,8.87
2019-06-07T03:57:19.498Z,8.88
2019-06-07T03:59:49.509Z,9.17
2019-06-07T04:02:19.404Z,9.13
2019-06-07T04:04:49.425Z,9.57
2019-06-07T04:07:19.448Z,9.30
2019-06-07T04:09:49.449Z,8.87
2019-06-07T04:12:19.436Z,9.83
2019-06-07T04:14:49.372Z,9.17
2019-06-07T04:17:19.373Z,8.80
2019-06-07T04:19:49.381Z,9.23
2019-06-07T04:22:19.411Z,9.63
2019-06-07T04:24:49.517Z,9.50
2019-06-07T04:27:19.556Z,8.13
2019-06-07T04:30:06.683Z,9.13
2019-06-07T04:32:22.235Z,10.32
2019-06-07T04:34:52.252Z,10.60
2019-06-07T04:37:24.765Z,9.60
2019-06-07T04:39:56.563Z,9.33
2019-06-07T04:42:29.799Z,11.97
2019-06-07T04:45:00.606Z,10.27
2019-06-07T04:47:33.798Z,10.10
2019-06-07T04:50:05.781Z,10.13
2019-06-07T04:52:40.155Z,10.57
2019-06-07T04:55:07.907Z,9.43
2019-06-07T04:57:40.387Z,7.80
2019-06-07T05:00:45.668Z,8.13
2019-06-07T05:02:43.440Z,8.37
2019-06-07T05:05:13.443Z,8.30
2019-06-07T05:07:46.337Z,8.33
2019-06-07T05:10:15.466Z,7.90
2019-06-07T05:12:45.462Z,8.33
2019-06-07T05:15:15.901Z,7.87
2019-06-07T05:17:45.886Z,8.17
2019-06-07T05:20:16.191Z,7.13
2019-06-07T05:22:46.272Z,5.87
2019-06-07T05:25:16.484Z,7.37
2019-06-07T05:27:47.112Z,8.17
2019-06-07T05:33:11.611Z,8.87
2019-06-07T05:35:43.550Z,8.27
2019-06-07T05:38:13.534Z,9.30
2019-06-07T05:40:48.642Z,9.97
2019-06-07T05:43:25.692Z,9.93
2019-06-07T05:45:55.999Z,10.70
2019-06-07T05:48:26.813Z,11.53
2019-06-07T05:50:57.739Z,10.70
2019-06-07T05:53:28.130Z,10.32
2019-06-07T05:55:58.241Z,9.90
2019-06-07T05:58:28.278Z,10.08
2019-06-07T06:01:41.005Z,10.65
2019-06-07T06:03:30.259Z,10.27
2019-06-07T06:06:00.203Z,11.53
2019-06-07T06:08:31.014Z,11.20
2019-06-07T06:11:00.949Z,11.03
2019-06-07T06:13:30.942Z,10.20
2019-06-07T06:16:02.328Z,11.00
2019-06-07T06:18:32.495Z,11.30
2019-06-07T06:21:16.461Z,11.50
2019-06-07T06:23:34.399Z,11.30
2019-06-07T06:26:04.582Z,10.93
2019-06-07T06:28:36.781Z,12.33
2019-06-07T06:31:06.324Z,9.88
2019-06-07T06:33:37.486Z,10.33
2019-06-07T06:36:07.895Z,9.57
2019-06-07T06:38:38.569Z,9.70
2019-06-07T06:41:15.761Z,9.83
2019-06-07T06:43:46.198Z,10.50
2019-06-07T06:46:13.135Z,10.20
2019-06-07T06:48:48.262Z,9.33
2019-06-07T06:51:14.961Z,10.90
2019-06-07T06:53:46.874Z,9.00
2019-06-07T06:56:16.601Z,9.50
2019-06-07T06:59:26.835Z,9.23
2019-06-07T07:01:18.582Z,10.13
2019-06-07T07:04:07.256Z,9.77
2019-06-07T07:06:26.434Z,9.00
2019-06-07T07:08:56.155Z,9.80
2019-06-07T07:11:26.266Z,9.70
2019-06-07T07:13:57.270Z,9.00
2019-06-07T07:16:27.320Z,9.00
2019-06-07T07:18:57.397Z,9.00
2019-06-07T07:21:27.413Z,8.27
2019-06-07T07:24:20.403Z,9.57
2019-06-07T07:26:29.299Z,8.80
2019-06-07T07:28:59.380Z,8.53
2019-06-07T07:31:29.519Z,9.37
2019-06-07T07:34:28.989Z,8.83
2019-06-07T07:36:39.353Z,8.17
2019-06-07T07:39:05.295Z,8.37
2019-06-07T07:41:34.846Z,7.07
2019-06-07T07:44:07.458Z,7.47
2019-06-07T07:46:37.178Z,6.97
2019-06-07T07:49:07.303Z,7.60
2019-06-07T07:51:37.452Z,7.67
2019-06-07T07:54:10.644Z,7.20
2019-06-07T07:56:39.405Z,7.47
2019-06-07T07:59:09.642Z,8.30
2019-06-07T08:01:39.860Z,6.50
2019-06-07T08:04:09.928Z,7.17
2019-06-07T08:06:40.690Z,6.70
2019-06-07T08:09:10.896Z,7.90
2019-06-07T08:11:40.974Z,7.60
2019-06-07T08:14:11.093Z,6.80
2019-06-07T08:16:41.274Z,6.13
2019-06-07T08:19:13.137Z,6.50
2019-06-07T08:21:43.353Z,7.23
2019-06-07T08:24:13.359Z,7.77
2019-06-07T08:26:43.558Z,8.57
2019-06-07T08:29:13.655Z,7.43
2019-06-07T08:31:43.752Z,8.10
2019-06-07T08:34:13.716Z,7.03
2019-06-07T08:36:43.724Z,7.10
2019-06-07T08:39:13.743Z,7.83
2019-06-07T08:41:53.845Z,7.10
2019-06-07T08:44:23.638Z,8.70
2019-06-07T08:46:47.444Z,7.50
2019-06-07T08:49:17.357Z,8.70
2019-06-07T08:51:47.362Z,8.37
2019-06-07T08:54:22.754Z,8.00
2019-06-07T08:56:49.039Z,8.63
2019-06-07T08:59:19.032Z,7.73
2019-06-07T09:01:49.098Z,8.43
2019-06-07T09:04:19.247Z,7.77
2019-06-07T09:07:14.678Z,7.43
2019-06-07T09:09:21.182Z,8.20
2019-06-07T09:11:52.439Z,7.80
2019-06-07T09:14:23.086Z,7.70
2019-06-07T09:16:55.389Z,9.20
2019-06-07T09:19:24.929Z,7.80
2019-06-07T09:21:57.448Z,7.63
2019-06-07T09:24:27.067Z,7.17
2019-06-07T09:26:58.293Z,7.20
2019-06-07T09:29:30.536Z,8.47
2019-06-07T09:32:05.819Z,7.87
2019-06-07T09:34:32.365Z,8.63
2019-06-07T09:37:23.735Z,8.30
2019-06-07T09:39:34.835Z,8.83
2019-06-07T09:42:10.044Z,8.90
2019-06-07T09:44:36.790Z,7.07
2019-06-07T09:47:22.261Z,7.63
2019-06-07T09:49:38.749Z,7.83
2019-06-07T09:52:10.952Z,7.60
2019-06-07T09:55:05.843Z,7.70
2019-06-07T09:57:17.328Z,7.50
2019-06-07T09:59:43.913Z,6.57
2019-06-07T10:02:14.014Z,6.93
2019-06-07T10:04:44.114Z,7.33
2019-06-07T10:07:30.574Z,6.93
2019-06-07T10:12:17.944Z,7.87
2019-06-07T10:14:48.013Z,7.60
2019-06-07T10:17:17.995Z,6.70
2019-06-07T10:19:48.081Z,7.63
2019-06-07T10:22:18.112Z,6.57
2019-06-07T10:24:48.197Z,7.00
2019-06-07T10:27:18.301Z,7.00
2019-06-07T10:29:48.375Z,7.67
2019-06-07T10:32:18.414Z,9.27
2019-06-07T10:34:48.475Z,6.23
2019-06-07T10:37:18.460Z,4.97
2019-06-07T10:39:49.437Z,6.20
2019-06-07T10:42:19.584Z,5.83
2019-06-07T10:44:49.503Z,6.70
2019-06-07T10:47:19.483Z,6.43
2019-06-07T10:49:49.640Z,5.97
2019-06-07T10:52:19.747Z,6.00
2019-06-07T10:54:49.840Z,6.87
2019-06-07T10:57:19.926Z,6.50
2019-06-07T10:59:49.903Z,6.47
2019-06-07T11:02:20.034Z,6.90
2019-06-07T11:04:50.016Z,5.70
2019-06-07T11:07:20.033Z,6.43
2019-06-07T11:10:05.697Z,5.43
2019-06-07T11:12:21.694Z,5.20
2019-06-07T11:14:51.631Z,5.13
2019-06-07T11:17:21.590Z,5.20
2019-06-07T11:19:51.652Z,5.43
2019-06-07T11:22:21.667Z,5.07
2019-06-07T11:24:51.721Z,4.87
2019-06-07T11:27:21.793Z,5.67
2019-06-07T11:29:51.747Z,5.20
2019-06-07T11:32:21.851Z,5.73
2019-06-07T11:34:51.889Z,5.00
2019-06-07T11:37:21.977Z,4.97
2019-06-07T11:39:52.110Z,4.83
2019-06-07T11:42:22.143Z,4.80
2019-06-07T11:44:56.912Z,4.73
2019-06-07T11:47:24.162Z,4.60
2019-06-07T11:49:54.250Z,4.50
2019-06-07T11:52:24.324Z,5.00
2019-06-07T11:54:54.329Z,3.80
2019-06-07T11:57:24.474Z,4.93
2019-06-07T11:59:54.512Z,4.53
2019-06-07T12:02:24.595Z,5.00
2019-06-07T12:04:54.600Z,4.17
2019-06-07T12:07:24.618Z,4.07
2019-06-07T12:09:56.712Z,3.90
2019-06-07T12:12:26.498Z,4.43
2019-06-07T12:14:56.584Z,4.27
2019-06-07T12:17:26.559Z,4.23
2019-06-07T12:19:56.581Z,4.67
2019-06-07T12:22:26.715Z,3.90
2019-06-07T12:24:56.812Z,5.30
2019-06-07T12:27:26.830Z,5.30
2019-06-07T12:29:56.841Z,4.17
2019-06-07T12:32:26.821Z,3.67
2019-06-07T12:34:56.861Z,4.10
2019-06-07T12:37:42.666Z,4.13
2019-06-07T12:39:58.705Z,4.47
2019-06-07T12:42:28.711Z,4.37
2019-06-07T12:44:59.820Z,3.80
2019-06-07T12:47:29.969Z,3.87
2019-06-07T12:49:59.926Z,4.60
2019-06-07T12:52:30.024Z,4.60
2019-06-07T12:55:00.254Z,4.40
2019-06-07T12:57:30.334Z,4.27
2019-06-07T13:00:00.291Z,3.67
2019-06-07T13:02:30.319Z,4.40
2019-06-07T13:05:04.533Z,4.27
2019-06-07T13:07:32.165Z,3.90
2019-06-07T13:10:02.146Z,3.72
2019-06-07T13:12:32.244Z,4.00
2019-06-07T13:15:02.379Z,4.27
2019-06-07T13:17:32.401Z,3.73
2019-06-07T13:20:02.400Z,4.07
2019-06-07T13:22:32.449Z,4.00
2019-06-07T13:25:02.659Z,3.80
2019-06-07T13:27:33.783Z,4.80
2019-06-07T13:30:09.895Z,4.63
2019-06-07T13:32:36.673Z,4.80
2019-06-07T13:35:07.632Z,4.70
2019-06-07T13:37:37.646Z,5.10
2019-06-07T13:40:08.509Z,4.95
2019-06-07T13:42:38.595Z,6.00
2019-06-07T13:45:09.376Z,5.20
2019-06-07T13:47:39.530Z,6.12
2019-06-07T13:50:10.319Z,5.67
2019-06-07T13:52:41.953Z,5.67
2019-06-07T13:55:12.705Z,6.03
2019-06-07T13:57:42.803Z,6.27
2019-06-07T14:00:14.280Z,5.60
2019-06-07T14:02:44.313Z,6.37
2019-06-07T14:05:15.084Z,6.22
2019-06-07T14:07:45.029Z,5.80
2019-06-07T14:10:15.237Z,5.60
2019-06-07T14:12:45.265Z,6.00
2019-06-07T14:15:16.053Z,6.28
2019-06-07T14:17:46.038Z,5.67
2019-06-07T14:20:16.556Z,6.07
2019-06-07T14:22:48.166Z,5.87
2019-06-07T14:25:18.491Z,6.57
2019-06-07T14:27:48.428Z,5.67
2019-06-07T14:30:19.003Z,6.37
2019-06-07T14:32:48.931Z,5.23
2019-06-07T14:35:19.283Z,5.30
2019-06-07T14:37:49.245Z,5.20
2019-06-07T14:40:19.685Z,5.47
2019-06-07T14:42:49.593Z,5.90
2019-06-07T14:45:20.437Z,5.77
2019-06-07T14:47:50.434Z,6.03
2019-06-07T14:50:20.698Z,5.83
2019-06-07T14:52:50.678Z,6.07
2019-06-07T14:55:21.217Z,5.17
2019-06-07T14:57:51.208Z,5.70
2019-06-07T15:00:26.124Z,5.10
2019-06-07T15:02:56.074Z,5.77
2019-06-07T15:05:32.832Z,5.00
2019-06-07T15:08:02.908Z,5.03
2019-06-07T15:10:33.728Z,5.40
2019-06-07T15:13:05.270Z,6.20
2019-06-07T15:15:35.297Z,4.87
2019-06-07T15:18:05.515Z,5.80
2019-06-07T15:20:36.384Z,6.50
2019-06-07T15:23:07.707Z,5.60
2019-06-07T15:25:37.777Z,5.92
2019-06-07T15:28:07.831Z,5.80
2019-06-07T15:30:37.886Z,5.95
2019-06-07T15:33:07.962Z,6.58
2019-06-07T15:35:39.095Z,5.80
2019-06-07T15:38:09.194Z,4.90
2019-06-07T15:40:39.742Z,5.57
2019-06-07T15:43:09.743Z,6.07
2019-06-07T15:45:39.836Z,5.77
2019-06-07T15:48:09.921Z,6.00
2019-06-07T15:50:40.470Z,5.93
2019-06-07T15:53:10.684Z,6.93
2019-06-07T15:55:45.329Z,6.20
2019-06-07T15:58:12.655Z,6.08
2019-06-07T16:00:42.957Z,6.63
2019-06-07T16:03:13.043Z,5.50
2019-06-07T16:05:43.302Z,6.40
2019-06-07T16:08:13.473Z,6.13
2019-06-07T16:10:43.593Z,6.00
2019-06-07T16:13:13.797Z,6.10
2019-06-07T16:15:44.081Z,6.58
2019-06-07T16:18:14.170Z,6.83
2019-06-07T16:20:44.323Z,6.70
2019-06-07T16:23:14.448Z,6.35
2019-06-07T16:25:44.514Z,5.70
2019-06-07T16:28:14.486Z,6.70
2019-06-07T16:30:44.888Z,6.50
2019-06-07T16:33:15.199Z,6.67
2019-06-07T16:35:45.381Z,6.27
2019-06-07T16:38:15.434Z,6.67
2019-06-07T16:40:45.670Z,6.00
2019-06-07T16:43:17.821Z,5.73
2019-06-07T16:45:48.942Z,6.00
2019-06-07T16:48:19.328Z,6.27
2019-06-07T16:50:49.345Z,6.33
2019-06-07T16:53:19.411Z,6.07
2019-06-07T16:55:49.427Z,6.40
2019-06-07T16:58:19.386Z,6.20
2019-06-07T17:00:49.405Z,6.40
2019-06-07T17:03:19.410Z,6.33
2019-06-07T17:05:50.544Z,5.70
2019-06-07T17:08:20.818Z,6.27
2019-06-07T17:10:50.930Z,6.57
2019-06-07T17:13:33.029Z,6.03
2019-06-07T17:15:52.714Z,5.60
2019-06-07T17:18:22.724Z,6.27
2019-06-07T17:20:52.809Z,6.03
2019-06-07T17:23:22.910Z,6.57
2019-06-07T17:25:53.059Z,6.57
2019-06-07T17:28:23.185Z,6.33
2019-06-07T17:30:53.353Z,6.70
2019-06-07T17:33:23.297Z,6.33
2019-06-07T17:35:53.333Z,6.13
2019-06-07T17:38:23.432Z,6.70
2019-06-07T17:40:53.366Z,6.37
2019-06-07T17:43:23.387Z,6.63
2019-06-07T17:45:53.319Z,6.97
2019-06-07T17:48:24.183Z,7.00
2019-06-07T17:50:54.330Z,7.27
2019-06-07T17:53:24.374Z,6.53
2019-06-07T17:55:54.552Z,6.87
2019-06-07T17:58:24.582Z,7.00
2019-06-07T18:00:55.054Z,6.60
2019-06-07T18:03:25.222Z,7.50
2019-06-07T18:05:55.553Z,7.03
2019-06-07T18:08:26.272Z,7.10
2019-06-07T18:10:56.440Z,7.30
2019-06-07T18:13:26.540Z,7.20
2019-06-07T18:15:59.449Z,7.73
2019-06-07T18:18:28.484Z,7.73
2019-06-07T18:20:58.547Z,7.17
2019-06-07T18:23:28.554Z,7.67
2019-06-07T18:25:58.899Z,7.60
2019-06-07T18:28:29.089Z,7.10
2019-06-07T18:30:59.137Z,7.77
2019-06-07T18:33:29.169Z,8.47
2019-06-07T18:35:59.504Z,7.50
2019-06-07T18:38:29.522Z,7.20
2019-06-07T18:40:59.675Z,7.50
2019-06-07T18:43:29.672Z,8.27
2019-06-07T18:45:59.757Z,8.10
2019-06-07T18:48:29.885Z,8.40
2019-06-07T18:50:59.969Z,7.83
2019-06-07T18:53:29.948Z,8.53
2019-06-07T18:56:00.097Z,7.70
2019-06-07T18:58:30.126Z,7.17
2019-06-07T19:01:00.312Z,7.40
2019-06-07T19:03:30.344Z,8.63
2019-06-07T19:06:00.411Z,7.93
2019-06-07T19:08:30.515Z,7.17
2019-06-07T19:11:00.567Z,8.17
2019-06-07T19:13:30.539Z,8.67
2019-06-07T19:16:00.548Z,8.97
2019-06-07T19:18:31.378Z,8.73
2019-06-07T19:21:01.414Z,8.43
2019-06-07T19:23:31.429Z,8.60
2019-06-07T19:26:01.620Z,7.77
2019-06-07T19:28:31.660Z,8.87
2019-06-07T19:31:01.692Z,8.40
2019-06-07T19:33:31.804Z,9.30
2019-06-07T19:36:02.070Z,8.97
2019-06-07T19:38:32.289Z,8.67
2019-06-07T19:41:18.252Z,8.20
2019-06-07T19:43:34.148Z,8.93
2019-06-07T19:46:04.367Z,9.00
2019-06-07T19:48:34.447Z,8.03
2019-06-07T19:51:04.522Z,8.93
2019-06-07T19:53:34.468Z,8.53
2019-06-07T19:56:04.615Z,8.10
2019-06-07T19:58:34.629Z,9.33
2019-06-07T20:01:04.894Z,8.40
2019-06-07T20:03:34.973Z,9.07
2019-06-07T20:06:05.074Z,9.63
2019-06-07T20:08:35.019Z,10.60
2019-06-07T20:11:05.147Z,8.90
2019-06-07T20:13:35.138Z,9.33
2019-06-07T20:16:05.357Z,11.87
2019-06-07T20:18:35.485Z,10.70
2019-06-07T20:21:06.736Z,9.50
2019-06-07T20:23:36.889Z,10.48
2019-06-07T20:26:06.960Z,10.70
2019-06-07T20:28:36.905Z,9.80
2019-06-07T20:31:08.203Z,10.00
2019-06-07T20:33:38.477Z,10.23
2019-06-07T20:36:09.098Z,9.70
2019-06-07T20:38:39.112Z,10.00
2019-06-07T20:41:09.019Z,10.87
2019-06-07T20:43:39.061Z,9.90
2019-06-07T20:46:09.124Z,9.58
2019-06-07T20:48:39.162Z,9.93
2019-06-07T20:51:09.155Z,8.23
2019-06-07T20:53:39.233Z,8.00
2019-06-07T20:56:09.378Z,9.53
2019-06-07T20:58:39.538Z,8.07
2019-06-07T21:01:09.666Z,7.90
2019-06-07T21:03:39.775Z,8.27
2019-06-07T21:06:10.042Z,7.77
2019-06-07T21:08:40.071Z,7.23
2019-06-07T21:11:10.096Z,6.73
2019-06-07T21:13:40.051Z,5.37
2019-06-07T21:16:10.491Z,6.17
2019-06-07T21:18:40.748Z,5.90
2019-06-07T21:21:10.815Z,5.47
2019-06-07T21:23:40.834Z,5.53
2019-06-07T21:26:11.150Z,6.20
2019-06-07T21:28:41.250Z,4.13
2019-06-07T21:31:12.356Z,4.67
2019-06-07T21:33:42.548Z,4.40
2019-06-07T21:36:12.459Z,4.33
2019-06-07T21:38:42.507Z,4.53
2019-06-07T21:41:12.709Z,3.20
2019-06-07T21:43:42.705Z,3.17
2019-06-07T21:46:20.013Z,2.75
2019-06-07T21:48:44.473Z,3.53
2019-06-07T21:51:14.545Z,2.47
2019-06-07T21:53:44.506Z,2.50
2019-06-07T21:56:14.678Z,2.37
2019-06-07T21:58:44.818Z,2.90
2019-06-07T22:01:28.917Z,2.80
2019-06-07T22:03:59.063Z,2.80
2019-06-07T22:06:29.138Z,2.63
2019-06-07T22:08:59.140Z,2.70
2019-06-07T22:11:29.234Z,2.47
2019-06-07T22:13:59.748Z,3.23
2019-06-07T22:16:29.778Z,2.23
2019-06-07T22:18:59.798Z,2.37
2019-06-07T22:21:29.863Z,2.30
2019-06-07T22:23:59.887Z,1.77
2019-06-07T22:26:29.956Z,1.40
2019-06-07T22:28:59.988Z,1.60
2019-06-07T22:31:31.079Z,1.70
2019-06-07T22:34:01.423Z,1.60
2019-06-07T22:36:31.445Z,1.50
2019-06-07T22:39:01.409Z,1.40
2019-06-07T22:41:31.560Z,1.30
2019-06-07T22:44:01.668Z,1.40
2019-06-07T22:46:37.344Z,1.33
2019-06-07T22:49:03.509Z,1.20
2019-06-07T22:51:33.402Z,1.33
2019-06-07T22:54:03.433Z,1.20
2019-06-07T22:56:38.614Z,1.60
2019-06-07T22:59:12.314Z,1.05
2019-06-07T23:01:41.063Z,1.30
2019-06-07T23:04:11.148Z,1.50
2019-06-07T23:06:41.255Z,1.60
2019-06-07T23:09:11.326Z,1.47
2019-06-07T23:11:41.221Z,1.40
2019-06-07T23:14:11.283Z,1.10
2019-06-07T23:16:54.808Z,1.87
2019-06-07T23:19:13.794Z,1.43
2019-06-07T23:21:43.921Z,1.20
2019-06-07T23:24:14.199Z,1.40
2019-06-07T23:26:44.240Z,1.27
2019-06-07T23:29:14.539Z,1.27
2019-06-07T23:31:44.695Z,1.90
2019-06-07T23:34:14.756Z,1.45
2019-06-07T23:36:44.808Z,1.35
2019-06-07T23:39:15.407Z,1.40
2019-06-07T23:41:45.554Z,1.20
2019-06-07T23:44:15.580Z,1.63
2019-06-07T23:46:45.534Z,1.77
2019-06-07T23:49:15.542Z,1.30
2019-06-07T23:51:45.488Z,1.33
2019-06-07T23:54:15.711Z,1.40
2019-06-07T23:56:45.807Z,1.10
2019-06-07T23:59:16.128Z,1.30
